Time;durP1;ratioP1;P1;durP2;ratioP2;P2;SDS_P1;SDS_P2;PMS_P1;PMS_P2;Temp;Humidity;BMP_temperature;BMP_pressure;BME280_temperature;BME280_humidity;BME280_pressure;Samples;Min_cycle;Max_cycle;Signal;HPM_P1;HPM_P2
2021/12/30 00:02:18;;;;;;;;;;;;;;;22.00;45.65;99795.94;4897513;29;20010;-76
2021/12/30 00:04:43;;;;;;;;;;;;;;;22.06;45.45;99794.25;4898175;29;19983;-76
2021/12/30 00:07:09;;;;;;;;;;;;;;;22.01;45.54;99791.97;4897093;29;20452;-76
2021/12/30 00:09:36;;;;;;;;;;;;;;;21.99;45.58;99796.34;4903249;29;20297;-75
2021/12/30 00:12:01;;;;;;;;;;;;;;;22.01;45.59;99791.97;4916632;29;19997;-76
2021/12/30 00:14:27;;;;;;;;;;;;;;;21.84;46.25;99801.28;4912059;29;20002;-77
2021/12/30 00:16:52;;;;;;;;;;;;;;;21.96;45.84;99803.53;4905936;29;19922;-75
2021/12/30 00:19:17;;;;;;;;;;;;;;;22.04;45.73;99805.03;4908160;29;19927;-75
2021/12/30 00:21:43;;;;;;;;;;;;;;;22.00;45.73;99793.16;4916313;29;20354;-74
2021/12/30 00:24:10;;;;;;;;;;;;;;;22.06;45.79;99788.69;4916394;29;19915;-77
2021/12/30 00:26:35;;;;;;;;;;;;;;;22.11;45.48;99791.06;4916389;29;19915;-75
2021/12/30 00:29:00;;;;;;;;;;;;;;;22.00;46.20;99793.16;4916317;29;19922;-75
2021/12/30 00:31:26;;;;;;;;;;;;;;;22.13;45.54;99797.00;4916222;29;19915;-75
2021/12/30 00:33:51;;;;;;;;;;;;;;;22.19;45.45;99782.66;4916153;29;20366;-75
2021/12/30 00:36:17;;;;;;;;;;;;;;;22.15;45.74;99788.25;4916226;29;19961;-75
2021/12/30 00:38:43;;;;;;;;;;;;;;;22.11;45.71;99781.94;4916228;29;19918;-77
2021/12/30 00:41:09;;;;;;;;;;;;;;;22.15;45.65;99777.13;4914872;29;20393;-76
2021/12/30 00:43:35;;;;;;;;;;;;;;;22.19;45.50;99777.09;4916123;29;19926;-76
2021/12/30 00:46:00;;;;;;;;;;;;;;;22.01;46.13;99778.06;4916023;29;20006;-79
2021/12/30 00:48:26;;;;;;;;;;;;;;;22.10;45.70;99786.72;4916108;29;20010;-75
2021/12/30 00:50:51;;;;;;;;;;;;;;;22.07;45.84;99786.75;4916006;29;19919;-78
2021/12/30 00:53:17;;;;;;;;;;;;;;;22.05;45.92;99784.34;4916004;29;20365;-77
2021/12/30 00:55:43;;;;;;;;;;;;;;;22.23;45.43;99781.41;4916151;29;19921;-76
2021/12/30 00:58:12;;;;;;;;;;;;;;;21.92;46.50;99780.53;4915983;29;20299;-75
2021/12/30 01:00:39;;;;;;;;;;;;;;;22.05;45.98;99778.78;4913847;29;19915;-78
2021/12/30 01:03:05;;;;;;;;;;;;;;;22.08;45.91;99789.13;4915947;29;20362;-75
2021/12/30 01:05:31;;;;;;;;;;;;;;;22.17;45.60;99785.84;4914681;29;20017;-75
2021/12/30 01:07:56;;;;;;;;;;;;;;;22.26;45.14;99779.78;4915887;29;20266;-78
2021/12/30 01:10:25;;;;;;;;;;;;;;;22.19;45.33;99783.44;4915819;29;19915;-76
2021/12/30 01:12:52;;;;;;;;;;;;;;;22.15;45.55;99780.72;4898993;29;20059;-78
2021/12/30 01:15:19;;;;;;;;;;;;;;;22.13;45.50;99780.31;4913163;29;19919;-75
2021/12/30 01:20:15;;;;;;;;;;;;;;;22.15;45.27;99788.25;4906082;29;19915;-75
2021/12/30 01:22:41;;;;;;;;;;;;;;;22.07;45.64;99781.97;4904821;29;19946;-78
2021/12/30 01:25:08;;;;;;;;;;;;;;;22.16;45.38;99792.63;4905359;29;19915;-76
2021/12/30 01:27:39;;;;;;;;;;;;;;;22.12;45.58;99791.84;4904758;29;19915;-76
2021/12/30 01:30:05;;;;;;;;;;;;;;;22.20;45.23;99789.78;4907216;29;19915;-76
2021/12/30 01:32:31;;;;;;;;;;;;;;;22.20;45.51;99781.44;4905730;29;19963;-79
2021/12/30 01:34:56;;;;;;;;;;;;;;;22.19;45.43;99786.22;4907548;29;19919;-78
2021/12/30 01:37:23;;;;;;;;;;;;;;;22.12;45.51;99795.44;4904763;29;20010;-76
2021/12/30 01:39:49;;;;;;;;;;;;;;;22.00;45.70;99797.94;4906292;29;19915;-75
2021/12/30 01:42:14;;;;;;;;;;;;;;;21.89;45.91;99776.56;4904450;29;19916;-74
2021/12/30 01:44:40;;;;;;;;;;;;;;;22.02;45.48;99779.63;4906612;29;19922;-74
2021/12/30 01:47:06;;;;;;;;;;;;;;;22.06;45.34;99777.56;4902664;29;20006;-75
2021/12/30 01:49:32;;;;;;;;;;;;;;;22.04;45.52;99762.50;4888748;29;20014;-76
2021/12/30 01:51:57;;;;;;;;;;;;;;;22.10;45.13;99761.69;4906332;29;19959;-76
2021/12/30 01:54:23;;;;;;;;;;;;;;;22.11;45.18;99752.13;4904615;29;20022;-76
2021/12/30 01:56:51;;;;;;;;;;;;;;;22.05;45.41;99750.97;4906154;29;19919;-75
2021/12/30 01:59:18;;;;;;;;;;;;;;;22.06;45.17;99741.41;4906150;29;19919;-75
2021/12/30 02:01:45;;;;;;;;;;;;;;;22.06;45.04;99746.97;4904570;29;19926;-76
2021/12/30 02:04:11;;;;;;;;;;;;;;;21.97;45.37;99735.56;4905929;29;19922;-75
2021/12/30 02:06:36;;;;;;;;;;;;;;;21.96;45.51;99752.66;4906087;29;20261;-76
2021/12/30 02:09:02;;;;;;;;;;;;;;;21.96;45.44;99763.78;4904381;29;19919;-75
2021/12/30 02:11:28;;;;;;;;;;;;;;;21.97;45.45;99754.25;4906215;29;19931;-77
2021/12/30 02:13:53;;;;;;;;;;;;;;;21.91;45.54;99750.34;4908718;29;19915;-75
2021/12/30 02:16:21;;;;;;;;;;;;;;;21.89;45.50;99759.88;4909624;29;19935;-75
2021/12/30 02:18:47;;;;;;;;;;;;;;;21.89;45.43;99756.31;4912075;29;20001;-75
2021/12/30 02:21:13;;;;;;;;;;;;;;;21.85;45.42;99759.16;4908655;29;20009;-75
2021/12/30 02:23:38;;;;;;;;;;;;;;;21.81;45.57;99768.72;4907969;29;20262;-74
2021/12/30 02:26:06;;;;;;;;;;;;;;;21.65;46.48;99765.69;4909536;29;20374;-74
2021/12/30 02:28:33;;;;;;;;;;;;;;;21.70;46.26;99781.94;4907221;29;19922;-75
2021/12/30 02:31:00;;;;;;;;;;;;;;;21.68;46.13;99770.44;4907684;29;19910;-78
2021/12/30 02:33:28;;;;;;;;;;;;;;;21.74;46.16;99780.69;4910341;29;20383;-75
2021/12/30 02:35:54;;;;;;;;;;;;;;;21.63;46.27;99801.47;4908329;29;19922;-76
2021/12/30 02:38:23;;;;;;;;;;;;;;;21.67;46.38;99796.66;4909329;29;19911;-77
2021/12/30 02:40:53;;;;;;;;;;;;;;;21.65;46.46;99791.50;4912042;29;19922;-78
2021/12/30 02:43:23;;;;;;;;;;;;;;;21.66;46.36;99775.63;4914899;29;19915;-75
2021/12/30 02:45:49;;;;;;;;;;;;;;;21.60;46.68;99795.50;4918976;29;20001;-76
2021/12/30 02:48:16;;;;;;;;;;;;;;;21.62;46.42;99800.69;4918517;29;20006;-75
2021/12/30 02:50:43;;;;;;;;;;;;;;;21.60;46.83;99814.19;4918843;29;19915;-76
2021/12/30 02:53:08;;;;;;;;;;;;;;;21.56;47.18;99814.22;4918841;29;19915;-75
2021/12/30 02:55:34;;;;;;;;;;;;;;;21.75;46.92;99817.63;4918799;29;19915;-76
2021/12/30 02:57:59;;;;;;;;;;;;;;;21.85;46.49;99802.84;4918770;29;20263;-75
2021/12/30 03:00:24;;;;;;;;;;;;;;;21.79;46.91;99812.84;4918637;29;19919;-75
2021/12/30 03:02:50;;;;;;;;;;;;;;;21.94;46.64;99819.84;4918672;29;19915;-75
2021/12/30 03:05:16;;;;;;;;;;;;;;;21.96;46.95;99819.41;4918674;29;20349;-75
2021/12/30 03:07:42;;;;;;;;;;;;;;;22.19;46.12;99821.59;4918576;29;19921;-75
2021/12/30 03:10:13;;;;;;;;;;;;;;;22.15;46.46;99821.66;4917061;29;19989;-76
2021/12/30 03:12:38;;;;;;;;;;;;;;;22.19;46.50;99818.81;4899490;29;19922;-76
2021/12/30 03:15:04;;;;;;;;;;;;;;;22.21;46.34;99819.97;4899894;29;19915;-75
2021/12/30 03:17:29;;;;;;;;;;;;;;;22.31;46.24;99835.00;4882792;29;19938;-75
2021/12/30 03:19:56;;;;;;;;;;;;;;;22.31;46.15;99838.56;4899781;29;19919;-75
2021/12/30 03:22:21;;;;;;;;;;;;;;;22.21;46.37;99835.88;4898786;29;19966;-75
2021/12/30 03:24:47;;;;;;;;;;;;;;;22.15;46.43;99833.56;4899260;29;19950;-75
2021/12/30 03:27:12;;;;;;;;;;;;;;;22.17;46.17;99843.50;4899636;29;20430;-76
2021/12/30 03:29:38;;;;;;;;;;;;;;;22.13;46.60;99835.94;4899352;29;19963;-75
2021/12/30 03:32:03;;;;;;;;;;;;;;;22.14;46.52;99856.22;4899303;29;20290;-76
2021/12/30 03:34:29;;;;;;;;;;;;;;;22.18;46.36;99853.41;4899196;29;19916;-75
2021/12/30 03:36:54;;;;;;;;;;;;;;;22.22;46.30;99845.81;4899140;29;19922;-76
2021/12/30 03:39:19;;;;;;;;;;;;;;;22.13;46.72;99862.97;4899040;29;20396;-76
2021/12/30 03:41:45;;;;;;;;;;;;;;;22.33;46.07;99854.84;4898951;29;19935;-75
2021/12/30 03:44:11;;;;;;;;;;;;;;;22.32;46.32;99845.69;4899025;29;20010;-75
2021/12/30 03:46:36;;;;;;;;;;;;;;;22.21;46.67;99855.34;4898796;29;19919;-76
2021/12/30 03:49:05;;;;;;;;;;;;;;;22.34;46.35;99853.63;4899014;29;20006;-76
2021/12/30 03:51:37;;;;;;;;;;;;;;;22.36;46.00;99854.00;4898945;29;19922;-75
2021/12/30 03:54:03;;;;;;;;;;;;;;;22.17;46.58;99854.63;4898896;29;19915;-76
2021/12/30 03:56:29;;;;;;;;;;;;;;;22.21;46.33;99864.50;4898865;29;19921;-75
2021/12/30 03:58:54;;;;;;;;;;;;;;;22.06;46.82;99868.59;4898763;29;20002;-75
2021/12/30 04:01:21;;;;;;;;;;;;;;;21.83;47.45;99864.41;4898851;29;19919;-75
2021/12/30 04:03:48;;;;;;;;;;;;;;;21.91;47.24;99861.56;4898707;29;19916;-75
2021/12/30 04:06:14;;;;;;;;;;;;;;;22.02;46.82;99867.84;4898726;29;19915;-75
2021/12/30 04:08:40;;;;;;;;;;;;;;;22.02;46.90;99860.28;4897376;29;19963;-75
2021/12/30 04:11:05;;;;;;;;;;;;;;;21.81;47.64;99854.91;4898581;29;19919;-75
2021/12/30 04:13:31;;;;;;;;;;;;;;;21.95;47.26;99873.47;4898546;29;19915;-75
2021/12/30 04:15:57;;;;;;;;;;;;;;;21.91;47.36;99881.81;4898468;29;20437;-76
2021/12/30 04:18:22;;;;;;;;;;;;;;;21.89;47.64;99904.50;4898465;29;20275;-76
2021/12/30 04:20:47;;;;;;;;;;;;;;;21.83;47.65;99888.66;4898373;29;19915;-76
2021/12/30 04:23:14;;;;;;;;;;;;;;;21.97;47.58;99901.66;4898365;29;19922;-76
2021/12/30 04:25:39;;;;;;;;;;;;;;;21.87;47.83;99906.91;4898370;29;19915;-75
2021/12/30 04:28:05;;;;;;;;;;;;;;;22.05;47.55;99908.72;4898331;29;19923;-76
2021/12/30 04:30:30;;;;;;;;;;;;;;;22.04;47.67;99902.38;4897180;29;20010;-75
2021/12/30 04:32:56;;;;;;;;;;;;;;;22.09;47.65;99906.75;4896557;29;19926;-75
2021/12/30 04:35:21;;;;;;;;;;;;;;;22.07;47.79;99917.47;4897805;29;19915;-76
2021/12/30 04:37:47;;;;;;;;;;;;;;;21.97;48.23;99918.34;4898115;29;20369;-76
2021/12/30 04:40:13;;;;;;;;;;;;;;;22.08;47.96;99919.88;4898078;29;19915;-76
2021/12/30 04:42:38;;;;;;;;;;;;;;;21.92;48.38;99914.03;4897963;29;20473;-76
2021/12/30 04:45:05;;;;;;;;;;;;;;;22.07;48.03;99929.41;4898044;29;19916;-76
2021/12/30 04:47:30;;;;;;;;;;;;;;;22.13;48.00;99924.97;4897839;29;19969;-75
2021/12/30 04:49:57;;;;;;;;;;;;;;;22.08;48.07;99919.88;4897995;29;19958;-76
2021/12/30 04:52:23;;;;;;;;;;;;;;;22.04;48.26;99915.50;4897960;29;20445;-77
2021/12/30 04:54:49;;;;;;;;;;;;;;;22.23;47.57;99914.97;4898010;29;19919;-75
2021/12/30 04:57:15;;;;;;;;;;;;;;;22.20;47.92;99906.63;4898000;29;19963;-75
2021/12/30 04:59:40;;;;;;;;;;;;;;;22.11;47.95;99904.34;4897900;29;19922;-75
2021/12/30 05:02:05;;;;;;;;;;;;;;;22.18;47.87;99920.19;4897806;29;19962;-76
2021/12/30 05:04:31;;;;;;;;;;;;;;;22.20;47.53;99923.34;4897979;29;19965;-75
2021/12/30 05:06:56;;;;;;;;;;;;;;;22.18;47.49;99931.31;4897880;29;20337;-76
2021/12/30 05:09:22;;;;;;;;;;;;;;;22.22;47.63;99926.50;4897908;29;19962;-76
2021/12/30 05:11:47;;;;;;;;;;;;;;;21.79;48.67;99919.28;4897811;29;19922;-76
2021/12/30 05:14:13;;;;;;;;;;;;;;;22.04;47.77;99930.19;4897822;29;20303;-75
2021/12/30 05:16:38;;;;;;;;;;;;;;;22.06;47.82;99913.09;4897753;29;20385;-75
2021/12/30 05:19:04;;;;;;;;;;;;;;;22.08;47.67;99927.44;4897787;29;19923;-75
2021/12/30 05:21:30;;;;;;;;;;;;;;;22.05;47.65;99922.63;4896404;29;19915;-76
2021/12/30 05:23:55;;;;;;;;;;;;;;;21.84;48.31;99904.16;4896115;29;19926;-76
2021/12/30 05:26:25;;;;;;;;;;;;;;;21.69;48.86;99900.69;4897759;29;20002;-75
2021/12/30 05:28:57;;;;;;;;;;;;;;;21.67;48.89;99908.63;4897699;29;19915;-76
2021/12/30 05:31:22;;;;;;;;;;;;;;;21.84;48.61;99906.94;4897707;29;19915;-75
2021/12/30 05:33:48;;;;;;;;;;;;;;;21.57;49.34;99917.84;4897644;29;19915;-75
2021/12/30 05:36:13;;;;;;;;;;;;;;;21.81;48.69;99911.31;4897623;29;19922;-76
2021/12/30 05:38:38;;;;;;;;;;;;;;;21.77;48.77;99923.69;4897668;29;19923;-75
2021/12/30 05:41:04;;;;;;;;;;;;;;;21.55;49.22;99921.03;4897509;29;19967;-75
2021/12/30 05:43:29;;;;;;;;;;;;;;;21.64;49.18;99925.34;4896286;29;19916;-76
2021/12/30 05:45:54;;;;;;;;;;;;;;;21.57;49.33;99931.75;4898167;29;19927;-76
2021/12/30 05:48:20;;;;;;;;;;;;;;;21.76;48.53;99930.41;4900992;29;20009;-76
2021/12/30 05:50:45;;;;;;;;;;;;;;;21.70;48.86;99940.41;4901131;29;19923;-76
2021/12/30 05:53:11;;;;;;;;;;;;;;;21.34;49.77;99957.28;4901094;29;19919;-76
2021/12/30 05:55:36;;;;;;;;;;;;;;;21.28;50.21;99956.13;4901279;29;19922;-76
2021/12/30 05:58:02;;;;;;;;;;;;;;;21.56;49.33;99961.53;4901045;29;20009;-76
2021/12/30 06:00:28;;;;;;;;;;;;;;;21.69;49.14;99972.97;4900849;29;20058;-76
2021/12/30 06:02:54;;;;;;;;;;;;;;;21.54;49.72;99968.72;4900857;29;19915;-76
2021/12/30 06:05:19;;;;;;;;;;;;;;;21.88;48.76;99963.31;4900827;29;19923;-75
2021/12/30 06:07:45;;;;;;;;;;;;;;;21.84;48.73;99973.69;4900824;29;19919;-76
2021/12/30 06:10:11;;;;;;;;;;;;;;;21.28;50.27;99972.78;4900800;29;20422;-76
2021/12/30 06:12:37;;;;;;;;;;;;;;;21.80;48.75;99981.25;4900971;29;20287;-76
2021/12/30 06:15:03;;;;;;;;;;;;;;;21.98;48.09;99984.69;4900684;29;19915;-77
2021/12/30 06:17:29;;;;;;;;;;;;;;;21.62;49.32;99988.91;4900679;29;20421;-77
2021/12/30 06:19:54;;;;;;;;;;;;;;;21.78;48.88;100001.13;4900600;29;19958;-76
2021/12/30 06:22:20;;;;;;;;;;;;;;;21.67;49.03;100017.06;4900498;29;19919;-75
2021/12/30 06:24:45;;;;;;;;;;;;;;;21.72;49.24;100010.28;4900501;29;19919;-75
2021/12/30 06:27:11;;;;;;;;;;;;;;;21.82;48.85;100012.22;4900456;29;19919;-76
2021/12/30 06:29:37;;;;;;;;;;;;;;;21.74;48.85;100019.00;4900331;29;19915;-75
2021/12/30 06:32:03;;;;;;;;;;;;;;;21.73;48.94;99997.97;4900364;29;19916;-76
2021/12/30 06:34:28;;;;;;;;;;;;;;;21.81;48.85;100002.28;4900223;29;19911;-76
2021/12/30 06:36:54;;;;;;;;;;;;;;;21.65;49.08;100015.88;4900221;29;19922;-76
2021/12/30 06:39:19;;;;;;;;;;;;;;;21.77;48.85;100029.34;4900248;29;19915;-76
2021/12/30 06:41:44;;;;;;;;;;;;;;;21.71;48.92;100040.09;4899610;29;19970;-75
2021/12/30 06:44:10;;;;;;;;;;;;;;;21.92;48.23;100047.53;4899118;29;19962;-76
2021/12/30 06:46:36;;;;;;;;;;;;;;;21.84;48.32;100051.53;4899996;29;20267;-76
2021/12/30 06:49:03;;;;;;;;;;;;;;;21.85;48.43;100053.13;4900213;29;19970;-76
2021/12/30 06:51:34;;;;;;;;;;;;;;;21.76;48.66;100052.75;4900163;29;19915;-76
2021/12/30 06:54:00;;;;;;;;;;;;;;;21.72;48.54;100063.13;4900301;29;19924;-76
2021/12/30 06:56:26;;;;;;;;;;;;;;;21.81;48.50;100063.47;4899885;29;19919;-75
2021/12/30 06:58:51;;;;;;;;;;;;;;;21.71;48.78;100067.09;4898737;29;19994;-76
2021/12/30 07:01:17;;;;;;;;;;;;;;;21.93;47.77;100074.13;4899800;29;19915;-76
2021/12/30 07:03:42;;;;;;;;;;;;;;;21.84;47.94;100096.03;4899839;29;20293;-76
2021/12/30 07:06:08;;;;;;;;;;;;;;;21.61;48.86;100088.16;4899727;29;19918;-76
2021/12/30 07:08:33;;;;;;;;;;;;;;;21.57;48.87;100090.19;4899952;29;19916;-76
2021/12/30 07:10:58;;;;;;;;;;;;;;;21.92;48.07;100091.22;4899752;29;19916;-76
2021/12/30 07:13:24;;;;;;;;;;;;;;;22.02;47.81;100090.38;4899576;29;19911;-76
2021/12/30 07:15:50;;;;;;;;;;;;;;;21.97;47.81;100094.34;4898345;29;19961;-76
2021/12/30 07:18:15;;;;;;;;;;;;;;;21.94;47.72;100097.97;4899586;29;19919;-75
2021/12/30 07:20:40;;;;;;;;;;;;;;;21.87;47.89;100103.56;4899525;29;19922;-77
2021/12/30 07:23:06;;;;;;;;;;;;;;;22.04;47.25;100121.34;4899435;29;19916;-75
2021/12/30 07:25:31;;;;;;;;;;;;;;;22.02;47.41;100115.41;4898157;29;19915;-77
2021/12/30 07:27:57;;;;;;;;;;;;;;;22.05;46.95;100109.81;4899370;29;19915;-75
2021/12/30 07:30:24;;;;;;;;;;;;;;;21.94;47.29;100109.09;4899190;29;19939;-76
2021/12/30 07:32:50;;;;;;;;;;;;;;;21.91;47.36;100120.22;4899287;29;19915;-76
2021/12/30 07:35:16;;;;;;;;;;;;;;;21.94;47.65;100128.56;4897945;29;20070;-75
2021/12/30 07:37:42;;;;;;;;;;;;;;;21.89;47.52;100123.41;4899251;29;19915;-75
2021/12/30 07:40:08;;;;;;;;;;;;;;;21.95;47.63;100121.00;4899194;29;19922;-76
2021/12/30 07:42:33;;;;;;;;;;;;;;;22.01;47.40;100124.94;4898965;29;19916;-76
2021/12/30 07:44:59;;;;;;;;;;;;;;;21.97;47.22;100116.59;4897821;29;19921;-76
2021/12/30 07:47:24;;;;;;;;;;;;;;;21.90;47.20;100119.44;4897386;29;19926;-76
2021/12/30 07:49:50;;;;;;;;;;;;;;;22.03;47.01;100128.91;4898952;29;19951;-75
2021/12/30 07:52:15;;;;;;;;;;;;;;;22.01;46.71;100133.28;4898736;29;19926;-76
2021/12/30 07:54:43;;;;;;;;;;;;;;;21.85;47.08;100147.69;4898930;29;19947;-76
2021/12/30 07:57:09;;;;;;;;;;;;;;;21.79;47.10;100160.41;4898873;29;19967;-76
2021/12/30 07:59:35;;;;;;;;;;;;;;;21.74;47.27;100164.38;4898785;29;19919;-75
2021/12/30 08:02:00;;;;;;;;;;;;;;;21.74;47.22;100164.38;4898597;29;20006;-76
2021/12/30 08:04:25;;;;;;;;;;;;;;;21.86;46.94;100163.94;4898716;29;19915;-76
2021/12/30 08:06:51;;;;;;;;;;;;;;;21.79;46.90;100177.09;4898730;29;20029;-75
2021/12/30 08:09:16;;;;;;;;;;;;;;;21.84;46.90;100183.03;4898275;29;19915;-76
2021/12/30 08:11:42;;;;;;;;;;;;;;;21.82;46.90;100187.41;4898542;29;20302;-76
2021/12/30 08:14:07;;;;;;;;;;;;;;;21.77;46.93;100194.19;4898835;29;19911;-76
2021/12/30 08:16:33;;;;;;;;;;;;;;;21.74;47.08;100194.19;4898724;29;20457;-77
2021/12/30 08:18:58;;;;;;;;;;;;;;;21.75;47.08;100192.97;4898429;29;19912;-75
2021/12/30 08:21:24;;;;;;;;;;;;;;;21.88;46.68;100186.59;4898313;29;19926;-76
2021/12/30 08:23:51;;;;;;;;;;;;;;;21.92;46.54;100191.34;4898417;29;19959;-76
2021/12/30 08:26:17;;;;;;;;;;;;;;;21.90;46.47;100202.84;4898654;29;19911;-76
2021/12/30 08:28:42;;;;;;;;;;;;;;;21.98;46.61;100212.75;4898253;29;19938;-76
2021/12/30 08:31:08;;;;;;;;;;;;;;;22.04;46.32;100205.59;4898313;29;19916;-76
2021/12/30 08:33:33;;;;;;;;;;;;;;;21.96;46.58;100204.03;4898256;29;20389;-75
2021/12/30 08:35:58;;;;;;;;;;;;;;;22.02;46.28;100207.19;4898239;29;19922;-76
2021/12/30 08:38:24;;;;;;;;;;;;;;;22.00;46.55;100217.94;4898244;29;19944;-75
2021/12/30 08:40:50;;;;;;;;;;;;;;;22.06;46.38;100244.13;4898025;29;20392;-76
2021/12/30 08:43:17;;;;;;;;;;;;;;;22.02;46.48;100257.28;4906179;29;19919;-76
2021/12/30 08:45:43;;;;;;;;;;;;;;;22.04;46.10;100261.22;4908383;29;19919;-76
2021/12/30 08:48:08;;;;;;;;;;;;;;;22.09;46.17;100274.75;4906334;29;20341;-76
2021/12/30 08:50:34;;;;;;;;;;;;;;;22.06;46.58;100274.72;4907029;29;19998;-76
2021/12/30 08:52:59;;;;;;;;;;;;;;;22.05;46.25;100262.81;4907338;29;20369;-76
2021/12/30 08:55:25;;;;;;;;;;;;;;;22.06;46.47;100252.47;4906170;29;19918;-76
2021/12/30 08:57:51;;;;;;;;;;;;;;;22.03;46.50;100254.09;4907288;29;21331;-75
2021/12/30 09:00:23;;;;;;;;;;;;;;;22.11;46.03;100243.75;4905297;29;19971;-76
2021/12/30 09:02:49;;;;;;;;;;;;;;;22.21;46.07;100248.47;4906542;29;20283;-75
2021/12/30 09:05:14;;;;;;;;;;;;;;;22.29;45.93;100260.38;4905316;29;19974;-75
2021/12/30 09:07:40;;;;;;;;;;;;;;;22.29;45.89;100249.22;4907063;29;19923;-78
2021/12/30 09:10:07;;;;;;;;;;;;;;;22.09;46.52;100235.03;4905082;29;19923;-76
2021/12/30 09:12:32;;;;;;;;;;;;;;;22.19;46.41;100242.53;4905478;29;19915;-78
2021/12/30 09:14:58;;;;;;;;;;;;;;;22.22;46.10;100238.94;4907211;29;19922;-76
2021/12/30 09:17:23;;;;;;;;;;;;;;;22.14;46.53;100240.97;4905320;29;19923;-76
2021/12/30 09:19:48;;;;;;;;;;;;;;;22.15;46.37;100255.69;4906199;29;19915;-78
2021/12/30 09:22:14;;;;;;;;;;;;;;;22.27;46.09;100260.78;4909450;29;19916;-76
2021/12/30 09:24:39;;;;;;;;;;;;;;;22.34;46.08;100257.97;4909303;29;19972;-76
2021/12/30 09:27:05;;;;;;;;;;;;;;;22.27;46.27;100262.78;4910389;29;19919;-77
2021/12/30 09:29:30;;;;;;;;;;;;;;;22.26;46.29;100263.97;4909949;29;19915;-78
2021/12/30 09:31:58;;;;;;;;;;;;;;;22.25;46.30;100262.38;4909259;29;19915;-77
2021/12/30 09:34:23;;;;;;;;;;;;;;;22.24;46.40;100263.59;4910501;29;19919;-78
2021/12/30 09:36:48;;;;;;;;;;;;;;;22.18;46.64;100265.97;4909777;29;19963;-76
2021/12/30 09:39:15;;;;;;;;;;;;;;;22.20;46.40;100269.16;4909172;29;19922;-76
2021/12/30 09:41:43;;;;;;;;;;;;;;;22.20;46.59;100274.72;4910556;29;20370;-75
2021/12/30 09:44:10;;;;;;;;;;;;;;;22.24;46.59;100275.50;4909610;29;19922;-75
2021/12/30 09:46:36;;;;;;;;;;;;;;;22.25;46.59;100279.09;4908437;29;19919;-76
2021/12/30 09:49:02;;;;;;;;;;;;;;;22.21;46.36;100281.88;4910587;29;20401;-76
2021/12/30 09:51:28;;;;;;;;;;;;;;;22.15;46.71;100283.50;4909482;29;20061;-75
2021/12/30 09:53:53;;;;;;;;;;;;;;;22.30;46.29;100279.47;4908995;29;19919;-75
2021/12/30 09:56:19;;;;;;;;;;;;;;;22.31;46.27;100280.25;4910076;29;19962;-76
2021/12/30 09:58:45;;;;;;;;;;;;;;;22.40;45.99;100286.97;4908790;29;19911;-78
2021/12/30 10:01:11;;;;;;;;;;;;;;;22.43;45.83;100283.38;4909052;29;20374;-77
2021/12/30 10:03:36;;;;;;;;;;;;;;;22.41;46.08;100288.56;4900773;29;19915;-76
2021/12/30 10:06:09;;;;;;;;;;;;;;;22.40;46.12;100286.19;4905453;29;19911;-76
2021/12/30 10:08:43;;;;;;;;;;;;;;;22.15;46.63;100289.06;4919085;29;19919;-75
2021/12/30 10:11:12;;;;;;;;;;;;;;;22.42;46.09;100297.69;4918357;29;19917;-75
2021/12/30 10:13:41;;;;;;;;;;;;;;;22.38;46.53;100296.94;4918983;29;20212;-76
2021/12/30 10:16:13;;;;;;;;;;;;;;;22.32;46.74;100299.31;4917650;29;19919;-75
2021/12/30 10:18:56;;;;;;;;;;;;;;;22.43;46.42;100308.41;4917262;29;20310;-76
2021/12/30 10:21:27;;;;;;;;;;;;;;;22.35;46.85;100303.28;4912953;29;19916;-75
2021/12/30 10:23:57;;;;;;;;;;;;;;;22.55;46.10;100312.75;4908815;29;19941;-78
2021/12/30 10:26:23;;;;;;;;;;;;;;;22.56;46.34;100307.97;4910441;29;19937;-77
2021/12/30 10:28:49;;;;;;;;;;;;;;;22.53;46.42;100309.59;4911043;29;20417;-76
2021/12/30 10:31:15;;;;;;;;;;;;;;;22.56;46.52;100307.97;4917412;29;19922;-76
2021/12/30 10:33:52;;;;;;;;;;;;;;;22.68;46.06;100310.31;4917403;29;19915;-77
2021/12/30 10:36:19;;;;;;;;;;;;;;;22.77;45.83;100319.00;4918368;29;19915;-75
2021/12/30 10:38:45;;;;;;;;;;;;;;;22.57;46.38;100321.50;4918369;29;19915;-78
2021/12/30 10:41:10;;;;;;;;;;;;;;;22.49;46.47;100313.56;4917450;29;19922;-76
2021/12/30 10:43:46;;;;;;;;;;;;;;;22.56;46.35;100325.47;4917595;29;19915;-76
2021/12/30 10:46:16;;;;;;;;;;;;;;;22.39;46.89;100332.72;4917501;29;19978;-76
2021/12/30 10:48:56;;;;;;;;;;;;;;;22.55;46.59;100321.09;4917587;29;19919;-76
2021/12/30 10:51:28;;;;;;;;;;;;;;;22.52;46.77;100318.31;4917581;29;19915;-76
2021/12/30 10:53:54;;;;;;;;;;;;;;;22.64;46.37;100326.22;4917557;29;20532;-76
2021/12/30 10:56:23;;;;;;;;;;;;;;;22.66;46.41;100329.41;4918406;29;19915;-76
2021/12/30 10:58:48;;;;;;;;;;;;;;;22.64;46.53;100323.44;4918783;29;20374;-76
2021/12/30 11:01:18;;;;;;;;;;;;;;;22.74;46.33;100319.00;4918752;29;19915;-76
2021/12/30 11:03:57;;;;;;;;;;;;;;;22.74;46.56;100319.81;4918762;29;19921;-76
2021/12/30 11:06:23;;;;;;;;;;;;;;;22.65;46.72;100316.69;4918654;29;20062;-76
2021/12/30 11:09:05;;;;;;;;;;;;;;;22.80;46.51;100311.81;4918625;29;19954;-76
2021/12/30 11:11:31;;;;;;;;;;;;;;;22.90;46.35;100311.81;4918574;29;20370;-75
2021/12/30 11:14:06;;;;;;;;;;;;;;;22.80;46.67;100306.25;4918499;29;19921;-75
2021/12/30 11:16:33;;;;;;;;;;;;;;;22.85;46.77;100295.53;4918478;29;19915;-76
2021/12/30 11:19:06;;;;;;;;;;;;;;;22.88;46.61;100288.34;4918615;29;20298;-76
2021/12/30 11:21:51;;;;;;;;;;;;;;;22.86;46.93;100291.53;4918586;29;19915;-76
2021/12/30 11:24:17;;;;;;;;;;;;;;;22.82;47.17;100292.72;4918516;29;19914;-75
2021/12/30 11:26:43;;;;;;;;;;;;;;;23.06;46.53;100294.59;4918515;29;19915;-75
2021/12/30 11:29:09;;;;;;;;;;;;;;;23.05;46.58;100301.38;4918237;29;19922;-76
2021/12/30 11:31:34;;;;;;;;;;;;;;;23.09;46.48;100295.75;4917976;29;19954;-77
2021/12/30 11:34:01;;;;;;;;;;;;;;;23.18;46.29;100294.09;4918195;29;19963;-75
2021/12/30 11:36:29;;;;;;;;;;;;;;;23.02;46.68;100288.25;4918313;29;19922;-76
2021/12/30 11:38:57;;;;;;;;;;;;;;;23.07;46.36;100287.03;4917981;29;19915;-77
2021/12/30 11:41:25;;;;;;;;;;;;;;;23.27;46.09;100276.91;4917945;29;19922;-76
2021/12/30 11:43:50;;;;;;;;;;;;;;;23.16;46.67;100279.78;4917258;29;20374;-76
2021/12/30 11:46:34;;;;;;;;;;;;;;;23.09;46.62;100282.63;4917947;29;19926;-76
2021/12/30 11:49:01;;;;;;;;;;;;;;;23.10;46.67;100283.41;4917833;29;20022;-76
2021/12/30 11:51:40;;;;;;;;;;;;;;;23.32;45.99;100284.84;4917888;29;19919;-76
2021/12/30 11:54:24;;;;;;;;;;;;;;;23.30;46.27;100283.66;4917895;29;20337;-76
2021/12/30 11:57:09;;;;;;;;;;;;;;;23.15;46.76;100278.19;4917692;29;19915;-76
2021/12/30 11:59:39;;;;;;;;;;;;;;;23.25;46.52;100280.09;4916240;29;20352;-76
2021/12/30 12:02:24;;;;;;;;;;;;;;;23.43;45.99;100282.75;4917572;29;19915;-77
2021/12/30 12:04:50;;;;;;;;;;;;;;;23.33;46.42;100280.03;4916966;29;19946;-75
2021/12/30 12:07:15;;;;;;;;;;;;;;;23.41;46.25;100278.78;4917530;29;19961;-76
2021/12/30 12:09:42;;;;;;;;;;;;;;;23.27;46.45;100268.53;4917511;29;19919;-76
2021/12/30 12:12:09;;;;;;;;;;;;;;;23.42;46.31;100274.78;4917445;29;19922;-76
2021/12/30 12:14:38;;;;;;;;;;;;;;;23.48;46.02;100282.31;4916185;29;20374;-75
2021/12/30 12:17:11;;;;;;;;;;;;;;;23.47;46.04;100277.94;4917485;29;19992;-75
2021/12/30 12:19:57;;;;;;;;;;;;;;;23.47;46.04;100271.56;4917888;29;19938;-76
2021/12/30 12:22:24;;;;;;;;;;;;;;;23.53;45.82;100281.06;4916951;29;19922;-77
2021/12/30 12:25:12;;;;;;;;;;;;;;;23.43;46.13;100282.75;4917347;29;19922;-75
2021/12/30 12:27:48;;;;;;;;;;;;;;;23.47;45.84;100289.09;4917226;29;19922;-75
2021/12/30 12:30:21;;;;;;;;;;;;;;;23.47;46.01;100282.72;4916085;29;19919;-76
2021/12/30 12:32:47;;;;;;;;;;;;;;;23.32;46.24;100282.03;4916870;29;20009;-76
2021/12/30 12:35:18;;;;;;;;;;;;;;;23.41;46.13;100289.94;4915877;29;20293;-77
2021/12/30 12:37:47;;;;;;;;;;;;;;;23.35;46.21;100286.00;4917082;29;20267;-77
2021/12/30 12:40:15;;;;;;;;;;;;;;;23.37;46.16;100283.59;4917086;29;19915;-76
2021/12/30 12:42:53;;;;;;;;;;;;;;;23.33;46.27;100282.84;4916900;29;19922;-76